sensor_id;sensor_type;location;lat;lon;timestamp;P1;durP1;ratioP1;P2;durP2;ratioP2
37157;SDS011;23050;51.776;22.638;2023-03-01T00:01:28;154.95;;;58.40;;
37157;SDS011;23050;51.776;22.638;2023-03-01T00:03:55;144.27;;;56.70;;
37157;SDS011;23050;51.776;22.638;2023-03-01T00:06:21;115.35;;;45.90;;
37157;SDS011;23050;51.776;22.638;2023-03-01T00:08:47;117.78;;;44.83;;
37157;SDS011;23050;51.776;22.638;2023-03-01T00:11:18;119.47;;;47.97;;
37157;SDS011;23050;51.776;22.638;2023-03-01T00:13:49;126.50;;;44.90;;
37157;SDS011;23050;51.776;22.638;2023-03-01T00:16:18;106.65;;;43.92;;
37157;SDS011;23050;51.776;22.638;2023-03-01T00:18:48;112.70;;;42.78;;
37157;SDS011;23050;51.776;22.638;2023-03-01T00:21:15;99.05;;;38.67;;
37157;SDS011;23050;51.776;22.638;2023-03-01T00:23:41;106.47;;;40.25;;
37157;SDS011;23050;51.776;22.638;2023-03-01T00:26:07;100.65;;;40.15;;
37157;SDS011;23050;51.776;22.638;2023-03-01T00:28:35;105.72;;;40.70;;
37157;SDS011;23050;51.776;22.638;2023-03-01T00:31:07;99.82;;;39.50;;
37157;SDS011;23050;51.776;22.638;2023-03-01T00:33:35;107.47;;;40.65;;
37157;SDS011;23050;51.776;22.638;2023-03-01T00:36:01;105.70;;;39.80;;
37157;SDS011;23050;51.776;22.638;2023-03-01T00:38:27;109.50;;;41.75;;
37157;SDS011;23050;51.776;22.638;2023-03-01T00:40:52;117.38;;;44.80;;
37157;SDS011;23050;51.776;22.638;2023-03-01T00:43:18;124.80;;;42.97;;
37157;SDS011;23050;51.776;22.638;2023-03-01T00:45:44;116.65;;;41.88;;
37157;SDS011;23050;51.776;22.638;2023-03-01T00:48:09;118.65;;;43.55;;
37157;SDS011;23050;51.776;22.638;2023-03-01T00:50:35;118.18;;;41.90;;
37157;SDS011;23050;51.776;22.638;2023-03-01T00:53:01;112.65;;;40.95;;
37157;SDS011;23050;51.776;22.638;2023-03-01T00:55:26;110.40;;;40.67;;
37157;SDS011;23050;51.776;22.638;2023-03-01T00:57:52;97.30;;;39.85;;
37157;SDS011;23050;51.776;22.638;2023-03-01T01:00:18;103.75;;;40.33;;
37157;SDS011;23050;51.776;22.638;2023-03-01T01:02:44;93.75;;;38.60;;
37157;SDS011;23050;51.776;22.638;2023-03-01T01:05:10;92.78;;;37.05;;
37157;SDS011;23050;51.776;22.638;2023-03-01T01:07:36;100.90;;;37.67;;
37157;SDS011;23050;51.776;22.638;2023-03-01T01:10:02;89.32;;;37.75;;
37157;SDS011;23050;51.776;22.638;2023-03-01T01:12:28;89.13;;;35.78;;
37157;SDS011;23050;51.776;22.638;2023-03-01T01:14:53;94.80;;;35.95;;
37157;SDS011;23050;51.776;22.638;2023-03-01T01:17:19;88.00;;;35.40;;
37157;SDS011;23050;51.776;22.638;2023-03-01T01:19:44;86.13;;;34.03;;
37157;SDS011;23050;51.776;22.638;2023-03-01T01:22:10;86.30;;;35.85;;
37157;SDS011;23050;51.776;22.638;2023-03-01T01:24:36;86.22;;;35.70;;
37157;SDS011;23050;51.776;22.638;2023-03-01T01:27:01;84.13;;;33.53;;
37157;SDS011;23050;51.776;22.638;2023-03-01T01:29:27;77.07;;;32.65;;
37157;SDS011;23050;51.776;22.638;2023-03-01T01:31:52;79.65;;;33.05;;
37157;SDS011;23050;51.776;22.638;2023-03-01T01:34:20;78.03;;;33.13;;
37157;SDS011;23050;51.776;22.638;2023-03-01T01:36:52;85.38;;;34.17;;
37157;SDS011;23050;51.776;22.638;2023-03-01T01:39:19;83.40;;;34.03;;
37157;SDS011;23050;51.776;22.638;2023-03-01T01:41:45;93.90;;;36.25;;
37157;SDS011;23050;51.776;22.638;2023-03-01T01:47:24;79.13;;;33.05;;
37157;SDS011;23050;51.776;22.638;2023-03-01T01:52:25;87.75;;;34.50;;
37157;SDS011;23050;51.776;22.638;2023-03-01T01:57:26;87.80;;;35.37;;
37157;SDS011;23050;51.776;22.638;2023-03-01T02:00:07;80.32;;;33.30;;
37157;SDS011;23050;51.776;22.638;2023-03-01T02:02:41;77.40;;;32.10;;
37157;SDS011;23050;51.776;22.638;2023-03-01T02:05:09;80.53;;;33.75;;
37157;SDS011;23050;51.776;22.638;2023-03-01T02:07:40;84.85;;;33.45;;
37157;SDS011;23050;51.776;22.638;2023-03-01T02:10:07;84.70;;;33.58;;
37157;SDS011;23050;51.776;22.638;2023-03-01T02:12:33;79.22;;;34.63;;
37157;SDS011;23050;51.776;22.638;2023-03-01T02:15:00;85.32;;;35.22;;
37157;SDS011;23050;51.776;22.638;2023-03-01T02:17:26;83.10;;;34.42;;
37157;SDS011;23050;51.776;22.638;2023-03-01T02:22:34;79.35;;;34.10;;
37157;SDS011;23050;51.776;22.638;2023-03-01T02:28:18;86.43;;;35.25;;
37157;SDS011;23050;51.776;22.638;2023-03-01T02:30:49;81.95;;;33.28;;
37157;SDS011;23050;51.776;22.638;2023-03-01T02:33:35;74.25;;;31.48;;
37157;SDS011;23050;51.776;22.638;2023-03-01T02:36:21;81.32;;;33.97;;
37157;SDS011;23050;51.776;22.638;2023-03-01T02:38:51;89.57;;;34.13;;
37157;SDS011;23050;51.776;22.638;2023-03-01T02:41:21;85.10;;;34.50;;
37157;SDS011;23050;51.776;22.638;2023-03-01T02:43:48;87.75;;;35.67;;
37157;SDS011;23050;51.776;22.638;2023-03-01T02:46:15;86.95;;;33.92;;
37157;SDS011;23050;51.776;22.638;2023-03-01T02:48:50;79.45;;;34.40;;
37157;SDS011;23050;51.776;22.638;2023-03-01T02:51:27;85.32;;;36.00;;
37157;SDS011;23050;51.776;22.638;2023-03-01T02:54:05;85.43;;;34.70;;
37157;SDS011;23050;51.776;22.638;2023-03-01T02:56:41;89.38;;;33.80;;
37157;SDS011;23050;51.776;22.638;2023-03-01T02:59:09;88.43;;;35.83;;
37157;SDS011;23050;51.776;22.638;2023-03-01T03:01:35;86.97;;;34.63;;
37157;SDS011;23050;51.776;22.638;2023-03-01T03:04:07;83.72;;;34.03;;
37157;SDS011;23050;51.776;22.638;2023-03-01T03:06:34;76.28;;;33.17;;
37157;SDS011;23050;51.776;22.638;2023-03-01T03:09:01;82.43;;;32.70;;
37157;SDS011;23050;51.776;22.638;2023-03-01T03:11:27;80.28;;;34.10;;
37157;SDS011;23050;51.776;22.638;2023-03-01T03:13:53;86.53;;;33.88;;
37157;SDS011;23050;51.776;22.638;2023-03-01T03:16:19;82.07;;;32.67;;
37157;SDS011;23050;51.776;22.638;2023-03-01T03:18:45;89.05;;;34.75;;
37157;SDS011;23050;51.776;22.638;2023-03-01T03:21:11;92.18;;;36.70;;
37157;SDS011;23050;51.776;22.638;2023-03-01T03:23:37;84.05;;;34.55;;
37157;SDS011;23050;51.776;22.638;2023-03-01T03:26:03;84.47;;;35.88;;
37157;SDS011;23050;51.776;22.638;2023-03-01T03:28:30;78.40;;;34.95;;
37157;SDS011;23050;51.776;22.638;2023-03-01T03:30:57;93.57;;;35.58;;
37157;SDS011;23050;51.776;22.638;2023-03-01T03:33:23;80.40;;;35.65;;
37157;SDS011;23050;51.776;22.638;2023-03-01T03:35:49;80.20;;;38.08;;
37157;SDS011;23050;51.776;22.638;2023-03-01T03:38:17;85.40;;;36.70;;
37157;SDS011;23050;51.776;22.638;2023-03-01T03:40:48;78.15;;;35.35;;
37157;SDS011;23050;51.776;22.638;2023-03-01T03:43:16;88.00;;;34.70;;
37157;SDS011;23050;51.776;22.638;2023-03-01T03:45:48;73.78;;;32.33;;
37157;SDS011;23050;51.776;22.638;2023-03-01T03:48:15;79.97;;;32.22;;
37157;SDS011;23050;51.776;22.638;2023-03-01T03:50:41;91.55;;;37.08;;
37157;SDS011;23050;51.776;22.638;2023-03-01T03:53:12;95.47;;;36.40;;
37157;SDS011;23050;51.776;22.638;2023-03-01T03:55:38;94.30;;;35.00;;
37157;SDS011;23050;51.776;22.638;2023-03-01T03:58:04;66.47;;;30.27;;
37157;SDS011;23050;51.776;22.638;2023-03-01T04:00:38;72.47;;;31.65;;
37157;SDS011;23050;51.776;22.638;2023-03-01T04:03:06;64.60;;;30.23;;
37157;SDS011;23050;51.776;22.638;2023-03-01T04:05:32;75.40;;;31.58;;
37157;SDS011;23050;51.776;22.638;2023-03-01T04:07:59;65.68;;;29.02;;
37157;SDS011;23050;51.776;22.638;2023-03-01T04:10:28;73.72;;;32.75;;
37157;SDS011;23050;51.776;22.638;2023-03-01T04:12:55;66.13;;;30.60;;
37157;SDS011;23050;51.776;22.638;2023-03-01T04:15:21;71.38;;;30.27;;
37157;SDS011;23050;51.776;22.638;2023-03-01T04:17:49;76.50;;;31.98;;
37157;SDS011;23050;51.776;22.638;2023-03-01T04:20:17;67.30;;;29.88;;
37157;SDS011;23050;51.776;22.638;2023-03-01T04:22:49;69.53;;;32.13;;
37157;SDS011;23050;51.776;22.638;2023-03-01T04:25:44;72.45;;;31.48;;
37157;SDS011;23050;51.776;22.638;2023-03-01T04:28:14;52.87;;;23.97;;
37157;SDS011;23050;51.776;22.638;2023-03-01T04:30:40;72.97;;;31.17;;
37157;SDS011;23050;51.776;22.638;2023-03-01T04:33:06;70.32;;;31.17;;
37157;SDS011;23050;51.776;22.638;2023-03-01T04:35:33;84.07;;;34.90;;
37157;SDS011;23050;51.776;22.638;2023-03-01T04:38:00;90.75;;;37.05;;
37157;SDS011;23050;51.776;22.638;2023-03-01T04:40:25;95.68;;;44.13;;
37157;SDS011;23050;51.776;22.638;2023-03-01T04:42:51;90.13;;;40.97;;
37157;SDS011;23050;51.776;22.638;2023-03-01T04:45:17;88.82;;;39.05;;
37157;SDS011;23050;51.776;22.638;2023-03-01T04:47:43;77.38;;;35.40;;
37157;SDS011;23050;51.776;22.638;2023-03-01T04:50:11;80.03;;;34.95;;
37157;SDS011;23050;51.776;22.638;2023-03-01T04:52:39;74.63;;;35.17;;
37157;SDS011;23050;51.776;22.638;2023-03-01T04:55:04;86.68;;;36.10;;
37157;SDS011;23050;51.776;22.638;2023-03-01T04:57:31;77.50;;;34.88;;
37157;SDS011;23050;51.776;22.638;2023-03-01T04:59:57;80.80;;;35.38;;
37157;SDS011;23050;51.776;22.638;2023-03-01T05:02:22;78.47;;;34.95;;
37157;SDS011;23050;51.776;22.638;2023-03-01T05:04:48;75.40;;;32.60;;
37157;SDS011;23050;51.776;22.638;2023-03-01T05:07:14;79.45;;;34.15;;
37157;SDS011;23050;51.776;22.638;2023-03-01T05:09:44;81.88;;;36.63;;
37157;SDS011;23050;51.776;22.638;2023-03-01T05:12:13;81.28;;;36.63;;
37157;SDS011;23050;51.776;22.638;2023-03-01T05:14:39;87.15;;;37.33;;
37157;SDS011;23050;51.776;22.638;2023-03-01T05:17:05;76.60;;;35.78;;
37157;SDS011;23050;51.776;22.638;2023-03-01T05:19:31;78.35;;;36.65;;
37157;SDS011;23050;51.776;22.638;2023-03-01T05:21:57;97.57;;;43.55;;
37157;SDS011;23050;51.776;22.638;2023-03-01T05:24:26;159.00;;;70.40;;
37157;SDS011;23050;51.776;22.638;2023-03-01T05:26:53;175.88;;;77.95;;
37157;SDS011;23050;51.776;22.638;2023-03-01T05:29:20;226.55;;;81.72;;
37157;SDS011;23050;51.776;22.638;2023-03-01T05:31:50;590.53;;;188.43;;
37157;SDS011;23050;51.776;22.638;2023-03-01T05:34:30;486.35;;;166.00;;
37157;SDS011;23050;51.776;22.638;2023-03-01T05:36:57;603.78;;;307.05;;
37157;SDS011;23050;51.776;22.638;2023-03-01T05:39:24;282.75;;;140.63;;
37157;SDS011;23050;51.776;22.638;2023-03-01T05:41:57;182.10;;;92.85;;
37157;SDS011;23050;51.776;22.638;2023-03-01T05:44:25;105.00;;;50.33;;
37157;SDS011;23050;51.776;22.638;2023-03-01T05:46:51;92.63;;;40.33;;
37157;SDS011;23050;51.776;22.638;2023-03-01T05:49:17;97.15;;;42.33;;
37157;SDS011;23050;51.776;22.638;2023-03-01T05:51:47;100.00;;;45.05;;
37157;SDS011;23050;51.776;22.638;2023-03-01T05:54:13;99.30;;;47.55;;
37157;SDS011;23050;51.776;22.638;2023-03-01T05:56:40;82.95;;;38.88;;
37157;SDS011;23050;51.776;22.638;2023-03-01T05:59:05;79.65;;;36.10;;
37157;SDS011;23050;51.776;22.638;2023-03-01T06:01:32;81.35;;;39.78;;
37157;SDS011;23050;51.776;22.638;2023-03-01T06:03:58;85.38;;;36.85;;
37157;SDS011;23050;51.776;22.638;2023-03-01T06:06:24;84.18;;;37.17;;
37157;SDS011;23050;51.776;22.638;2023-03-01T06:08:50;85.35;;;41.13;;
37157;SDS011;23050;51.776;22.638;2023-03-01T06:11:16;82.03;;;39.08;;
37157;SDS011;23050;51.776;22.638;2023-03-01T06:13:42;103.00;;;40.50;;
37157;SDS011;23050;51.776;22.638;2023-03-01T06:16:09;93.75;;;41.78;;
37157;SDS011;23050;51.776;22.638;2023-03-01T06:18:35;116.85;;;47.10;;
37157;SDS011;23050;51.776;22.638;2023-03-01T06:21:02;94.28;;;44.65;;
37157;SDS011;23050;51.776;22.638;2023-03-01T06:23:31;80.65;;;34.25;;
37157;SDS011;23050;51.776;22.638;2023-03-01T06:25:57;75.93;;;36.90;;
37157;SDS011;23050;51.776;22.638;2023-03-01T06:28:23;69.90;;;31.98;;
37157;SDS011;23050;51.776;22.638;2023-03-01T06:30:52;68.80;;;31.92;;
37157;SDS011;23050;51.776;22.638;2023-03-01T06:33:18;73.85;;;31.95;;
37157;SDS011;23050;51.776;22.638;2023-03-01T06:35:45;88.43;;;39.42;;
37157;SDS011;23050;51.776;22.638;2023-03-01T06:38:11;71.63;;;33.88;;
37157;SDS011;23050;51.776;22.638;2023-03-01T06:40:39;105.13;;;40.42;;
37157;SDS011;23050;51.776;22.638;2023-03-01T06:43:05;62.65;;;30.45;;
37157;SDS011;23050;51.776;22.638;2023-03-01T06:45:32;73.78;;;32.20;;
37157;SDS011;23050;51.776;22.638;2023-03-01T06:48:04;184.93;;;81.22;;
37157;SDS011;23050;51.776;22.638;2023-03-01T06:50:31;283.63;;;123.25;;
37157;SDS011;23050;51.776;22.638;2023-03-01T06:52:57;90.65;;;42.63;;
37157;SDS011;23050;51.776;22.638;2023-03-01T06:55:23;188.32;;;83.53;;
37157;SDS011;23050;51.776;22.638;2023-03-01T06:57:48;109.93;;;45.08;;
37157;SDS011;23050;51.776;22.638;2023-03-01T07:00:20;144.98;;;53.42;;
37157;SDS011;23050;51.776;22.638;2023-03-01T07:02:46;118.13;;;50.95;;
37157;SDS011;23050;51.776;22.638;2023-03-01T07:05:11;68.28;;;33.55;;
37157;SDS011;23050;51.776;22.638;2023-03-01T07:07:37;94.68;;;42.55;;
37157;SDS011;23050;51.776;22.638;2023-03-01T07:10:02;75.32;;;34.30;;
37157;SDS011;23050;51.776;22.638;2023-03-01T07:12:28;105.57;;;39.03;;
37157;SDS011;23050;51.776;22.638;2023-03-01T07:14:54;124.38;;;44.47;;
37157;SDS011;23050;51.776;22.638;2023-03-01T07:17:19;93.20;;;37.22;;
37157;SDS011;23050;51.776;22.638;2023-03-01T07:19:45;74.32;;;32.97;;
37157;SDS011;23050;51.776;22.638;2023-03-01T07:22:10;59.60;;;28.65;;
37157;SDS011;23050;51.776;22.638;2023-03-01T07:24:36;92.55;;;42.45;;
37157;SDS011;23050;51.776;22.638;2023-03-01T07:27:02;71.93;;;32.28;;
37157;SDS011;23050;51.776;22.638;2023-03-01T07:29:28;96.05;;;38.05;;
37157;SDS011;23050;51.776;22.638;2023-03-01T07:31:54;116.93;;;47.45;;
37157;SDS011;23050;51.776;22.638;2023-03-01T07:34:19;81.75;;;36.65;;
37157;SDS011;23050;51.776;22.638;2023-03-01T07:36:45;76.45;;;37.10;;
37157;SDS011;23050;51.776;22.638;2023-03-01T07:39:11;72.60;;;34.05;;
37157;SDS011;23050;51.776;22.638;2023-03-01T07:41:36;95.05;;;41.38;;
37157;SDS011;23050;51.776;22.638;2023-03-01T07:44:02;56.05;;;26.98;;
37157;SDS011;23050;51.776;22.638;2023-03-01T07:46:28;71.20;;;33.55;;
37157;SDS011;23050;51.776;22.638;2023-03-01T07:48:53;88.90;;;43.00;;
37157;SDS011;23050;51.776;22.638;2023-03-01T07:51:19;69.40;;;31.63;;
37157;SDS011;23050;51.776;22.638;2023-03-01T07:53:47;67.55;;;34.33;;
37157;SDS011;23050;51.776;22.638;2023-03-01T07:56:13;61.38;;;33.85;;
37157;SDS011;23050;51.776;22.638;2023-03-01T07:58:43;48.83;;;26.55;;
37157;SDS011;23050;51.776;22.638;2023-03-01T08:01:14;49.55;;;26.90;;
37157;SDS011;23050;51.776;22.638;2023-03-01T08:03:40;58.15;;;28.85;;
37157;SDS011;23050;51.776;22.638;2023-03-01T08:06:07;52.28;;;28.65;;
37157;SDS011;23050;51.776;22.638;2023-03-01T08:08:34;68.47;;;32.90;;
37157;SDS011;23050;51.776;22.638;2023-03-01T08:11:01;83.28;;;39.00;;
37157;SDS011;23050;51.776;22.638;2023-03-01T08:13:28;140.27;;;62.10;;
37157;SDS011;23050;51.776;22.638;2023-03-01T08:15:54;87.00;;;45.10;;
37157;SDS011;23050;51.776;22.638;2023-03-01T08:18:20;78.45;;;36.03;;
37157;SDS011;23050;51.776;22.638;2023-03-01T08:20:46;98.28;;;43.72;;
37157;SDS011;23050;51.776;22.638;2023-03-01T08:23:12;85.07;;;39.97;;
37157;SDS011;23050;51.776;22.638;2023-03-01T08:25:38;137.20;;;61.53;;
37157;SDS011;23050;51.776;22.638;2023-03-01T08:28:04;70.18;;;32.80;;
37157;SDS011;23050;51.776;22.638;2023-03-01T08:30:30;177.27;;;73.10;;
37157;SDS011;23050;51.776;22.638;2023-03-01T08:32:55;95.60;;;38.28;;
37157;SDS011;23050;51.776;22.638;2023-03-01T08:35:21;158.13;;;61.00;;
37157;SDS011;23050;51.776;22.638;2023-03-01T08:37:47;67.65;;;34.33;;
37157;SDS011;23050;51.776;22.638;2023-03-01T08:40:13;60.78;;;28.98;;
37157;SDS011;23050;51.776;22.638;2023-03-01T08:42:39;82.50;;;35.28;;
37157;SDS011;23050;51.776;22.638;2023-03-01T08:45:06;114.82;;;44.10;;
37157;SDS011;23050;51.776;22.638;2023-03-01T08:47:32;171.90;;;59.90;;
37157;SDS011;23050;51.776;22.638;2023-03-01T08:50:01;203.15;;;76.55;;
37157;SDS011;23050;51.776;22.638;2023-03-01T08:52:28;131.88;;;51.25;;
37157;SDS011;23050;51.776;22.638;2023-03-01T08:54:55;135.52;;;48.25;;
37157;SDS011;23050;51.776;22.638;2023-03-01T08:57:21;111.53;;;46.80;;
37157;SDS011;23050;51.776;22.638;2023-03-01T08:59:46;137.85;;;56.90;;
37157;SDS011;23050;51.776;22.638;2023-03-01T09:02:13;86.72;;;40.85;;
37157;SDS011;23050;51.776;22.638;2023-03-01T09:04:40;66.65;;;30.95;;
37157;SDS011;23050;51.776;22.638;2023-03-01T09:07:06;85.90;;;34.45;;
37157;SDS011;23050;51.776;22.638;2023-03-01T09:09:32;122.72;;;49.80;;
37157;SDS011;23050;51.776;22.638;2023-03-01T09:11:57;268.02;;;74.90;;
37157;SDS011;23050;51.776;22.638;2023-03-01T09:14:23;136.70;;;53.58;;
37157;SDS011;23050;51.776;22.638;2023-03-01T09:16:48;112.45;;;52.05;;
37157;SDS011;23050;51.776;22.638;2023-03-01T09:19:15;275.25;;;87.63;;
37157;SDS011;23050;51.776;22.638;2023-03-01T09:21:41;125.80;;;48.63;;
37157;SDS011;23050;51.776;22.638;2023-03-01T09:24:13;88.18;;;38.53;;
37157;SDS011;23050;51.776;22.638;2023-03-01T09:26:39;81.25;;;38.20;;
37157;SDS011;23050;51.776;22.638;2023-03-01T09:29:05;56.80;;;30.77;;
37157;SDS011;23050;51.776;22.638;2023-03-01T09:31:30;59.10;;;30.63;;
37157;SDS011;23050;51.776;22.638;2023-03-01T09:33:56;67.20;;;32.53;;
37157;SDS011;23050;51.776;22.638;2023-03-01T09:36:23;86.60;;;34.40;;
37157;SDS011;23050;51.776;22.638;2023-03-01T09:38:50;66.93;;;31.52;;
37157;SDS011;23050;51.776;22.638;2023-03-01T09:44:10;63.42;;;32.97;;
37157;SDS011;23050;51.776;22.638;2023-03-01T09:46:42;48.67;;;26.27;;
37157;SDS011;23050;51.776;22.638;2023-03-01T09:52:00;51.63;;;28.38;;
37157;SDS011;23050;51.776;22.638;2023-03-01T09:54:46;62.55;;;28.27;;
37157;SDS011;23050;51.776;22.638;2023-03-01T09:57:17;66.30;;;33.23;;
37157;SDS011;23050;51.776;22.638;2023-03-01T10:00:13;57.15;;;27.02;;
37157;SDS011;23050;51.776;22.638;2023-03-01T10:02:56;65.15;;;25.63;;
37157;SDS011;23050;51.776;22.638;2023-03-01T10:08:24;66.43;;;28.50;;
37157;SDS011;23050;51.776;22.638;2023-03-01T10:11:03;81.05;;;30.88;;
37157;SDS011;23050;51.776;22.638;2023-03-01T10:13:42;56.72;;;25.40;;
37157;SDS011;23050;51.776;22.638;2023-03-01T10:16:22;88.05;;;33.95;;
37157;SDS011;23050;51.776;22.638;2023-03-01T10:19:03;68.88;;;28.15;;
37157;SDS011;23050;51.776;22.638;2023-03-01T10:21:35;64.72;;;24.77;;
37157;SDS011;23050;51.776;22.638;2023-03-01T10:24:12;47.05;;;19.65;;
37157;SDS011;23050;51.776;22.638;2023-03-01T10:26:43;46.75;;;22.48;;
37157;SDS011;23050;51.776;22.638;2023-03-01T10:29:19;49.08;;;20.40;;
37157;SDS011;23050;51.776;22.638;2023-03-01T10:31:51;41.95;;;20.98;;
37157;SDS011;23050;51.776;22.638;2023-03-01T10:34:30;55.03;;;21.85;;
37157;SDS011;23050;51.776;22.638;2023-03-01T10:36:58;43.97;;;19.48;;
37157;SDS011;23050;51.776;22.638;2023-03-01T10:39:33;51.78;;;23.27;;
37157;SDS011;23050;51.776;22.638;2023-03-01T10:44:36;35.22;;;18.10;;
37157;SDS011;23050;51.776;22.638;2023-03-01T10:47:20;41.35;;;17.35;;
37157;SDS011;23050;51.776;22.638;2023-03-01T10:49:52;54.38;;;21.75;;
37157;SDS011;23050;51.776;22.638;2023-03-01T10:52:21;58.40;;;21.08;;
37157;SDS011;23050;51.776;22.638;2023-03-01T10:54:53;43.28;;;22.55;;
37157;SDS011;23050;51.776;22.638;2023-03-01T11:00:02;56.85;;;24.83;;
37157;SDS011;23050;51.776;22.638;2023-03-01T11:02:37;43.67;;;19.92;;
37157;SDS011;23050;51.776;22.638;2023-03-01T11:07:54;50.47;;;24.08;;
37157;SDS011;23050;51.776;22.638;2023-03-01T11:10:25;71.18;;;28.58;;
37157;SDS011;23050;51.776;22.638;2023-03-01T11:12:53;57.22;;;26.02;;
37157;SDS011;23050;51.776;22.638;2023-03-01T11:15:31;41.92;;;18.95;;
37157;SDS011;23050;51.776;22.638;2023-03-01T11:17:57;29.98;;;15.70;;
37157;SDS011;23050;51.776;22.638;2023-03-01T11:20:32;31.38;;;17.25;;
37157;SDS011;23050;51.776;22.638;2023-03-01T11:23:03;33.33;;;16.33;;
37157;SDS011;23050;51.776;22.638;2023-03-01T11:25:37;43.72;;;21.20;;
37157;SDS011;23050;51.776;22.638;2023-03-01T11:28:07;33.08;;;16.73;;
37157;SDS011;23050;51.776;22.638;2023-03-01T11:38:53;28.33;;;14.27;;
37157;SDS011;23050;51.776;22.638;2023-03-01T11:41:23;41.53;;;21.00;;
37157;SDS011;23050;51.776;22.638;2023-03-01T11:49:31;37.95;;;14.75;;
37157;SDS011;23050;51.776;22.638;2023-03-01T12:14:41;32.80;;;17.85;;
37157;SDS011;23050;51.776;22.638;2023-03-01T12:29:24;31.42;;;17.20;;
37157;SDS011;23050;51.776;22.638;2023-03-01T12:36:49;83.45;;;33.83;;
37157;SDS011;23050;51.776;22.638;2023-03-01T12:45:01;72.32;;;35.78;;
37157;SDS011;23050;51.776;22.638;2023-03-01T12:48:03;45.42;;;23.05;;
37157;SDS011;23050;51.776;22.638;2023-03-01T12:53:07;38.75;;;20.90;;
37157;SDS011;23050;51.776;22.638;2023-03-01T12:56:00;37.22;;;18.05;;
37157;SDS011;23050;51.776;22.638;2023-03-01T12:58:35;33.13;;;16.70;;
37157;SDS011;23050;51.776;22.638;2023-03-01T13:01:42;39.63;;;20.00;;
37157;SDS011;23050;51.776;22.638;2023-03-01T13:07:04;50.63;;;27.20;;
37157;SDS011;23050;51.776;22.638;2023-03-01T13:17:48;51.70;;;27.70;;
37157;SDS011;23050;51.776;22.638;2023-03-01T13:20:19;83.63;;;33.40;;
37157;SDS011;23050;51.776;22.638;2023-03-01T13:22:48;54.72;;;25.08;;
37157;SDS011;23050;51.776;22.638;2023-03-01T13:25:31;103.25;;;40.35;;
37157;SDS011;23050;51.776;22.638;2023-03-01T13:31:01;41.83;;;22.55;;
37157;SDS011;23050;51.776;22.638;2023-03-01T13:35:55;39.28;;;19.08;;
37157;SDS011;23050;51.776;22.638;2023-03-01T13:41:01;38.53;;;20.95;;
37157;SDS011;23050;51.776;22.638;2023-03-01T13:43:31;42.33;;;22.15;;
37157;SDS011;23050;51.776;22.638;2023-03-01T13:45:59;43.72;;;20.80;;
37157;SDS011;23050;51.776;22.638;2023-03-01T13:48:28;201.60;;;74.72;;
37157;SDS011;23050;51.776;22.638;2023-03-01T13:50:58;47.05;;;22.13;;
37157;SDS011;23050;51.776;22.638;2023-03-01T13:53:29;44.28;;;20.67;;
37157;SDS011;23050;51.776;22.638;2023-03-01T13:55:59;84.45;;;37.38;;
37157;SDS011;23050;51.776;22.638;2023-03-01T13:58:44;36.08;;;18.50;;
37157;SDS011;23050;51.776;22.638;2023-03-01T14:01:28;36.22;;;18.63;;
37157;SDS011;23050;51.776;22.638;2023-03-01T14:03:58;51.67;;;25.58;;
37157;SDS011;23050;51.776;22.638;2023-03-01T14:06:25;108.13;;;46.65;;
37157;SDS011;23050;51.776;22.638;2023-03-01T14:11:50;44.60;;;22.90;;
37157;SDS011;23050;51.776;22.638;2023-03-01T14:19:41;61.72;;;31.13;;
37157;SDS011;23050;51.776;22.638;2023-03-01T14:24:51;99.82;;;44.20;;
37157;SDS011;23050;51.776;22.638;2023-03-01T14:27:20;81.20;;;40.20;;
37157;SDS011;23050;51.776;22.638;2023-03-01T14:29:59;70.70;;;37.67;;
37157;SDS011;23050;51.776;22.638;2023-03-01T14:32:27;119.80;;;58.92;;
37157;SDS011;23050;51.776;22.638;2023-03-01T14:34:54;84.95;;;40.30;;
37157;SDS011;23050;51.776;22.638;2023-03-01T14:37:27;70.78;;;35.25;;
37157;SDS011;23050;51.776;22.638;2023-03-01T14:39:58;73.45;;;35.15;;
37157;SDS011;23050;51.776;22.638;2023-03-01T14:42:26;118.72;;;52.63;;
37157;SDS011;23050;51.776;22.638;2023-03-01T14:44:55;263.85;;;110.93;;
37157;SDS011;23050;51.776;22.638;2023-03-01T14:47:32;267.05;;;120.50;;
37157;SDS011;23050;51.776;22.638;2023-03-01T14:50:02;98.68;;;39.03;;
37157;SDS011;23050;51.776;22.638;2023-03-01T14:52:59;56.90;;;23.80;;
37157;SDS011;23050;51.776;22.638;2023-03-01T14:57:58;33.58;;;19.92;;
37157;SDS011;23050;51.776;22.638;2023-03-01T15:00:24;36.47;;;18.70;;
37157;SDS011;23050;51.776;22.638;2023-03-01T15:02:55;54.17;;;25.48;;
37157;SDS011;23050;51.776;22.638;2023-03-01T15:05:38;81.65;;;40.55;;
37157;SDS011;23050;51.776;22.638;2023-03-01T15:08:05;85.43;;;41.38;;
37157;SDS011;23050;51.776;22.638;2023-03-01T15:10:35;104.50;;;56.88;;
37157;SDS011;23050;51.776;22.638;2023-03-01T15:13:19;86.80;;;38.38;;
37157;SDS011;23050;51.776;22.638;2023-03-01T15:15:48;76.63;;;40.20;;
37157;SDS011;23050;51.776;22.638;2023-03-01T15:18:20;69.95;;;36.25;;
37157;SDS011;23050;51.776;22.638;2023-03-01T15:20:50;69.72;;;35.85;;
37157;SDS011;23050;51.776;22.638;2023-03-01T15:23:19;70.65;;;33.83;;
37157;SDS011;23050;51.776;22.638;2023-03-01T15:25:46;96.18;;;54.75;;
37157;SDS011;23050;51.776;22.638;2023-03-01T15:28:28;88.13;;;33.40;;
37157;SDS011;23050;51.776;22.638;2023-03-01T15:31:03;101.47;;;45.67;;
37157;SDS011;23050;51.776;22.638;2023-03-01T15:33:37;52.50;;;26.02;;
37157;SDS011;23050;51.776;22.638;2023-03-01T15:38:57;61.75;;;30.73;;
37157;SDS011;23050;51.776;22.638;2023-03-01T15:41:31;48.90;;;22.38;;
37157;SDS011;23050;51.776;22.638;2023-03-01T15:44:24;104.22;;;42.92;;
37157;SDS011;23050;51.776;22.638;2023-03-01T15:46:52;154.48;;;51.17;;
37157;SDS011;23050;51.776;22.638;2023-03-01T15:51:55;90.22;;;35.22;;
37157;SDS011;23050;51.776;22.638;2023-03-01T15:54:21;160.98;;;69.72;;
37157;SDS011;23050;51.776;22.638;2023-03-01T15:56:50;122.50;;;50.35;;
37157;SDS011;23050;51.776;22.638;2023-03-01T15:59:15;135.57;;;53.60;;
37157;SDS011;23050;51.776;22.638;2023-03-01T16:01:43;190.52;;;72.70;;
37157;SDS011;23050;51.776;22.638;2023-03-01T16:04:10;101.65;;;44.72;;
37157;SDS011;23050;51.776;22.638;2023-03-01T16:06:45;115.97;;;59.75;;
37157;SDS011;23050;51.776;22.638;2023-03-01T16:09:19;85.45;;;41.88;;
37157;SDS011;23050;51.776;22.638;2023-03-01T16:11:49;85.22;;;39.15;;
37157;SDS011;23050;51.776;22.638;2023-03-01T16:14:15;78.70;;;34.45;;
37157;SDS011;23050;51.776;22.638;2023-03-01T16:16:41;155.57;;;72.47;;
37157;SDS011;23050;51.776;22.638;2023-03-01T16:19:07;298.50;;;132.27;;
37157;SDS011;23050;51.776;22.638;2023-03-01T16:21:33;106.40;;;45.42;;
37157;SDS011;23050;51.776;22.638;2023-03-01T16:23:58;122.55;;;49.17;;
37157;SDS011;23050;51.776;22.638;2023-03-01T16:26:24;105.28;;;48.75;;
37157;SDS011;23050;51.776;22.638;2023-03-01T16:28:49;96.28;;;45.47;;